sensor_id;sensor_type;location;lat;lon;timestamp;P1;durP1;ratioP1;P2;durP2;ratioP2
74543;SDS011;63016;55.030;38.710;2023-07-31T00:00:01;5.93;;;2.72;;
74543;SDS011;63016;55.030;38.710;2023-07-31T00:02:27;6.43;;;3.00;;
74543;SDS011;63016;55.030;38.710;2023-07-31T00:04:52;4.72;;;2.53;;
74543;SDS011;63016;55.030;38.710;2023-07-31T00:07:18;9.65;;;3.10;;
74543;SDS011;63016;55.030;38.710;2023-07-31T00:09:43;6.03;;;2.90;;
74543;SDS011;63016;55.030;38.710;2023-07-31T00:12:09;9.52;;;2.92;;
74543;SDS011;63016;55.030;38.710;2023-07-31T00:14:34;11.32;;;3.35;;
74543;SDS011;63016;55.030;38.710;2023-07-31T00:17:00;6.00;;;2.78;;
74543;SDS011;63016;55.030;38.710;2023-07-31T00:19:26;9.38;;;2.72;;
74543;SDS011;63016;55.030;38.710;2023-07-31T00:21:51;8.30;;;2.75;;
74543;SDS011;63016;55.030;38.710;2023-07-31T00:24:17;6.05;;;2.88;;
74543;SDS011;63016;55.030;38.710;2023-07-31T00:26:42;8.27;;;2.78;;
74543;SDS011;63016;55.030;38.710;2023-07-31T00:29:08;5.18;;;2.40;;
74543;SDS011;63016;55.030;38.710;2023-07-31T00:31:33;6.22;;;2.83;;
74543;SDS011;63016;55.030;38.710;2023-07-31T00:33:58;9.73;;;3.00;;
74543;SDS011;63016;55.030;38.710;2023-07-31T00:36:24;6.93;;;2.78;;
74543;SDS011;63016;55.030;38.710;2023-07-31T00:38:50;6.60;;;3.00;;
74543;SDS011;63016;55.030;38.710;2023-07-31T00:41:15;9.57;;;2.70;;
74543;SDS011;63016;55.030;38.710;2023-07-31T00:43:40;3.80;;;2.63;;
74543;SDS011;63016;55.030;38.710;2023-07-31T00:46:06;10.85;;;3.13;;
74543;SDS011;63016;55.030;38.710;2023-07-31T00:48:32;6.68;;;2.88;;
74543;SDS011;63016;55.030;38.710;2023-07-31T00:50:58;4.15;;;2.33;;
74543;SDS011;63016;55.030;38.710;2023-07-31T00:53:24;3.90;;;2.63;;
74543;SDS011;63016;55.030;38.710;2023-07-31T00:55:50;7.82;;;3.20;;
74543;SDS011;63016;55.030;38.710;2023-07-31T00:58:16;4.97;;;2.25;;
74543;SDS011;63016;55.030;38.710;2023-07-31T01:00:41;4.45;;;2.38;;
74543;SDS011;63016;55.030;38.710;2023-07-31T01:03:07;5.18;;;2.70;;
74543;SDS011;63016;55.030;38.710;2023-07-31T01:08:40;8.48;;;3.20;;
74543;SDS011;63016;55.030;38.710;2023-07-31T01:11:16;4.80;;;2.50;;
74543;SDS011;63016;55.030;38.710;2023-07-31T01:13:47;5.25;;;3.03;;
74543;SDS011;63016;55.030;38.710;2023-07-31T01:16:12;6.10;;;2.13;;
74543;SDS011;63016;55.030;38.710;2023-07-31T01:18:38;7.10;;;2.55;;
74543;SDS011;63016;55.030;38.710;2023-07-31T01:21:08;6.55;;;2.35;;
74543;SDS011;63016;55.030;38.710;2023-07-31T01:26:40;8.05;;;2.50;;
74543;SDS011;63016;55.030;38.710;2023-07-31T01:32:05;7.95;;;2.60;;
74543;SDS011;63016;55.030;38.710;2023-07-31T01:34:32;6.03;;;2.40;;
74543;SDS011;63016;55.030;38.710;2023-07-31T01:37:00;6.53;;;2.83;;
74543;SDS011;63016;55.030;38.710;2023-07-31T01:39:26;8.00;;;2.58;;
74543;SDS011;63016;55.030;38.710;2023-07-31T01:41:51;6.38;;;2.40;;
74543;SDS011;63016;55.030;38.710;2023-07-31T01:44:17;4.10;;;2.40;;
74543;SDS011;63016;55.030;38.710;2023-07-31T01:46:42;7.63;;;2.63;;
74543;SDS011;63016;55.030;38.710;2023-07-31T01:49:08;12.07;;;2.60;;
74543;SDS011;63016;55.030;38.710;2023-07-31T01:51:33;3.97;;;2.63;;
74543;SDS011;63016;55.030;38.710;2023-07-31T01:54:01;4.30;;;2.22;;
74543;SDS011;63016;55.030;38.710;2023-07-31T01:56:27;8.07;;;2.70;;
74543;SDS011;63016;55.030;38.710;2023-07-31T01:58:53;4.72;;;2.42;;
74543;SDS011;63016;55.030;38.710;2023-07-31T02:01:18;4.35;;;2.60;;
74543;SDS011;63016;55.030;38.710;2023-07-31T02:03:44;4.82;;;2.40;;
74543;SDS011;63016;55.030;38.710;2023-07-31T02:06:09;3.70;;;2.20;;
74543;SDS011;63016;55.030;38.710;2023-07-31T02:08:35;5.35;;;2.30;;
74543;SDS011;63016;55.030;38.710;2023-07-31T02:11:00;9.70;;;3.00;;
74543;SDS011;63016;55.030;38.710;2023-07-31T02:13:26;10.38;;;2.70;;
74543;SDS011;63016;55.030;38.710;2023-07-31T02:15:51;9.98;;;2.92;;
74543;SDS011;63016;55.030;38.710;2023-07-31T02:18:17;9.45;;;2.78;;
74543;SDS011;63016;55.030;38.710;2023-07-31T02:20:42;7.13;;;2.55;;
74543;SDS011;63016;55.030;38.710;2023-07-31T02:23:11;4.78;;;2.22;;
74543;SDS011;63016;55.030;38.710;2023-07-31T02:25:36;5.80;;;2.58;;
74543;SDS011;63016;55.030;38.710;2023-07-31T02:28:02;5.72;;;2.67;;
74543;SDS011;63016;55.030;38.710;2023-07-31T02:30:27;7.18;;;2.15;;
74543;SDS011;63016;55.030;38.710;2023-07-31T02:32:53;7.15;;;2.20;;
74543;SDS011;63016;55.030;38.710;2023-07-31T02:35:18;4.05;;;1.88;;
74543;SDS011;63016;55.030;38.710;2023-07-31T02:37:44;5.85;;;2.50;;
74543;SDS011;63016;55.030;38.710;2023-07-31T02:40:09;5.57;;;2.65;;
74543;SDS011;63016;55.030;38.710;2023-07-31T02:42:35;5.72;;;2.67;;
74543;SDS011;63016;55.030;38.710;2023-07-31T02:45:01;6.93;;;2.28;;
74543;SDS011;63016;55.030;38.710;2023-07-31T02:47:26;5.20;;;2.50;;
74543;SDS011;63016;55.030;38.710;2023-07-31T02:49:52;5.68;;;2.35;;
74543;SDS011;63016;55.030;38.710;2023-07-31T02:52:17;6.80;;;2.78;;
74543;SDS011;63016;55.030;38.710;2023-07-31T02:54:43;7.25;;;2.47;;
74543;SDS011;63016;55.030;38.710;2023-07-31T02:57:08;5.95;;;2.17;;
74543;SDS011;63016;55.030;38.710;2023-07-31T02:59:34;3.55;;;1.90;;
74543;SDS011;63016;55.030;38.710;2023-07-31T03:01:59;6.88;;;2.55;;
74543;SDS011;63016;55.030;38.710;2023-07-31T03:04:25;7.88;;;2.15;;
74543;SDS011;63016;55.030;38.710;2023-07-31T03:06:50;12.20;;;2.80;;
74543;SDS011;63016;55.030;38.710;2023-07-31T03:09:16;5.38;;;2.40;;
74543;SDS011;63016;55.030;38.710;2023-07-31T03:11:41;6.22;;;2.30;;
74543;SDS011;63016;55.030;38.710;2023-07-31T03:14:07;6.00;;;2.30;;
74543;SDS011;63016;55.030;38.710;2023-07-31T03:16:32;6.30;;;2.00;;
74543;SDS011;63016;55.030;38.710;2023-07-31T03:18:58;4.97;;;2.10;;
74543;SDS011;63016;55.030;38.710;2023-07-31T03:21:23;5.75;;;2.33;;
74543;SDS011;63016;55.030;38.710;2023-07-31T03:23:49;3.92;;;2.17;;
74543;SDS011;63016;55.030;38.710;2023-07-31T03:26:14;5.13;;;1.98;;
74543;SDS011;63016;55.030;38.710;2023-07-31T03:28:40;6.78;;;2.20;;
74543;SDS011;63016;55.030;38.710;2023-07-31T03:31:05;2.83;;;2.08;;
74543;SDS011;63016;55.030;38.710;2023-07-31T03:33:31;5.13;;;2.17;;
74543;SDS011;63016;55.030;38.710;2023-07-31T03:35:56;4.75;;;1.90;;
74543;SDS011;63016;55.030;38.710;2023-07-31T03:38:22;4.03;;;2.40;;
74543;SDS011;63016;55.030;38.710;2023-07-31T03:40:47;3.80;;;2.22;;
74543;SDS011;63016;55.030;38.710;2023-07-31T03:43:13;4.97;;;2.20;;
74543;SDS011;63016;55.030;38.710;2023-07-31T03:45:39;4.93;;;2.42;;
74543;SDS011;63016;55.030;38.710;2023-07-31T03:48:04;3.50;;;2.40;;
74543;SDS011;63016;55.030;38.710;2023-07-31T03:50:30;3.95;;;2.30;;
74543;SDS011;63016;55.030;38.710;2023-07-31T03:52:55;4.70;;;2.20;;
74543;SDS011;63016;55.030;38.710;2023-07-31T03:55:21;3.20;;;2.05;;
74543;SDS011;63016;55.030;38.710;2023-07-31T03:57:47;4.93;;;2.10;;
74543;SDS011;63016;55.030;38.710;2023-07-31T04:00:12;4.38;;;2.20;;
74543;SDS011;63016;55.030;38.710;2023-07-31T04:02:38;3.28;;;2.20;;
74543;SDS011;63016;55.030;38.710;2023-07-31T04:05:04;2.85;;;1.73;;
74543;SDS011;63016;55.030;38.710;2023-07-31T04:07:29;5.18;;;2.22;;
74543;SDS011;63016;55.030;38.710;2023-07-31T04:09:55;6.15;;;2.15;;
74543;SDS011;63016;55.030;38.710;2023-07-31T04:12:20;3.17;;;2.08;;
74543;SDS011;63016;55.030;38.710;2023-07-31T04:14:46;2.55;;;1.92;;
74543;SDS011;63016;55.030;38.710;2023-07-31T04:17:11;4.32;;;1.95;;
74543;SDS011;63016;55.030;38.710;2023-07-31T04:19:37;5.72;;;2.20;;
74543;SDS011;63016;55.030;38.710;2023-07-31T04:22:02;4.03;;;1.88;;
74543;SDS011;63016;55.030;38.710;2023-07-31T04:24:28;6.32;;;2.03;;
74543;SDS011;63016;55.030;38.710;2023-07-31T04:26:54;4.88;;;1.73;;
74543;SDS011;63016;55.030;38.710;2023-07-31T04:29:19;3.97;;;2.22;;
74543;SDS011;63016;55.030;38.710;2023-07-31T04:31:45;3.88;;;2.00;;
74543;SDS011;63016;55.030;38.710;2023-07-31T04:34:11;4.45;;;1.90;;
74543;SDS011;63016;55.030;38.710;2023-07-31T04:36:39;4.72;;;1.90;;
74543;SDS011;63016;55.030;38.710;2023-07-31T04:39:04;5.70;;;1.70;;
74543;SDS011;63016;55.030;38.710;2023-07-31T04:41:30;3.65;;;1.55;;
74543;SDS011;63016;55.030;38.710;2023-07-31T04:43:55;5.00;;;1.85;;
74543;SDS011;63016;55.030;38.710;2023-07-31T04:46:21;7.78;;;1.90;;
74543;SDS011;63016;55.030;38.710;2023-07-31T04:48:46;4.10;;;1.67;;
74543;SDS011;63016;55.030;38.710;2023-07-31T04:51:12;3.50;;;1.60;;
74543;SDS011;63016;55.030;38.710;2023-07-31T04:53:37;3.60;;;1.60;;
74543;SDS011;63016;55.030;38.710;2023-07-31T04:56:03;1.60;;;1.38;;
74543;SDS011;63016;55.030;38.710;2023-07-31T04:58:28;3.50;;;1.67;;
74543;SDS011;63016;55.030;38.710;2023-07-31T05:00:54;2.33;;;1.40;;
74543;SDS011;63016;55.030;38.710;2023-07-31T05:03:19;2.53;;;1.58;;
74543;SDS011;63016;55.030;38.710;2023-07-31T05:05:45;3.60;;;1.48;;
74543;SDS011;63016;55.030;38.710;2023-07-31T05:08:10;5.88;;;2.25;;
74543;SDS011;63016;55.030;38.710;2023-07-31T05:10:36;2.97;;;1.48;;
74543;SDS011;63016;55.030;38.710;2023-07-31T05:13:02;3.72;;;1.50;;
74543;SDS011;63016;55.030;38.710;2023-07-31T05:15:28;3.47;;;1.55;;
74543;SDS011;63016;55.030;38.710;2023-07-31T05:17:53;2.40;;;1.50;;
74543;SDS011;63016;55.030;38.710;2023-07-31T05:20:19;4.95;;;1.55;;
74543;SDS011;63016;55.030;38.710;2023-07-31T05:22:44;4.05;;;1.50;;
74543;SDS011;63016;55.030;38.710;2023-07-31T05:25:10;4.65;;;1.80;;
74543;SDS011;63016;55.030;38.710;2023-07-31T05:27:35;2.28;;;1.50;;
74543;SDS011;63016;55.030;38.710;2023-07-31T05:30:01;2.17;;;1.58;;
74543;SDS011;63016;55.030;38.710;2023-07-31T05:32:26;3.25;;;1.80;;
74543;SDS011;63016;55.030;38.710;2023-07-31T05:34:52;3.80;;;1.50;;
74543;SDS011;63016;55.030;38.710;2023-07-31T05:37:18;1.75;;;1.40;;
74543;SDS011;63016;55.030;38.710;2023-07-31T05:39:44;2.83;;;1.60;;
74543;SDS011;63016;55.030;38.710;2023-07-31T05:42:09;2.38;;;1.35;;
74543;SDS011;63016;55.030;38.710;2023-07-31T05:44:35;2.75;;;1.58;;
74543;SDS011;63016;55.030;38.710;2023-07-31T05:47:00;5.10;;;1.40;;
74543;SDS011;63016;55.030;38.710;2023-07-31T05:49:26;2.20;;;1.20;;
74543;SDS011;63016;55.030;38.710;2023-07-31T05:51:51;1.85;;;1.20;;
74543;SDS011;63016;55.030;38.710;2023-07-31T05:54:17;1.67;;;1.00;;
74543;SDS011;63016;55.030;38.710;2023-07-31T05:56:42;2.45;;;1.25;;
74543;SDS011;63016;55.030;38.710;2023-07-31T05:59:08;3.20;;;1.60;;
74543;SDS011;63016;55.030;38.710;2023-07-31T06:01:35;2.97;;;1.00;;
74543;SDS011;63016;55.030;38.710;2023-07-31T06:04:00;1.92;;;1.13;;
74543;SDS011;63016;55.030;38.710;2023-07-31T06:06:27;3.38;;;1.20;;
74543;SDS011;63016;55.030;38.710;2023-07-31T06:08:53;1.77;;;1.20;;
74543;SDS011;63016;55.030;38.710;2023-07-31T06:11:19;4.13;;;1.20;;
74543;SDS011;63016;55.030;38.710;2023-07-31T06:13:45;4.43;;;1.10;;
74543;SDS011;63016;55.030;38.710;2023-07-31T06:16:13;1.98;;;1.33;;
74543;SDS011;63016;55.030;38.710;2023-07-31T06:18:38;2.42;;;1.00;;
74543;SDS011;63016;55.030;38.710;2023-07-31T06:21:03;2.33;;;1.10;;
74543;SDS011;63016;55.030;38.710;2023-07-31T06:23:29;1.73;;;0.98;;
74543;SDS011;63016;55.030;38.710;2023-07-31T06:25:54;1.30;;;1.05;;
74543;SDS011;63016;55.030;38.710;2023-07-31T06:28:20;1.98;;;1.00;;
74543;SDS011;63016;55.030;38.710;2023-07-31T06:30:45;2.42;;;1.02;;
74543;SDS011;63016;55.030;38.710;2023-07-31T06:33:11;1.85;;;1.10;;
74543;SDS011;63016;55.030;38.710;2023-07-31T06:35:36;4.07;;;1.20;;
74543;SDS011;63016;55.030;38.710;2023-07-31T06:38:02;3.92;;;1.15;;
74543;SDS011;63016;55.030;38.710;2023-07-31T06:40:28;1.60;;;1.00;;
74543;SDS011;63016;55.030;38.710;2023-07-31T06:42:54;4.22;;;1.15;;
74543;SDS011;63016;55.030;38.710;2023-07-31T06:45:19;3.42;;;1.00;;
74543;SDS011;63016;55.030;38.710;2023-07-31T06:47:45;4.25;;;1.25;;
74543;SDS011;63016;55.030;38.710;2023-07-31T06:50:10;4.18;;;1.02;;
74543;SDS011;63016;55.030;38.710;2023-07-31T06:52:36;5.65;;;1.08;;
74543;SDS011;63016;55.030;38.710;2023-07-31T06:55:17;2.25;;;0.85;;
74543;SDS011;63016;55.030;38.710;2023-07-31T06:57:45;1.08;;;0.93;;
74543;SDS011;63016;55.030;38.710;2023-07-31T07:00:12;2.08;;;0.90;;
74543;SDS011;63016;55.030;38.710;2023-07-31T07:02:38;1.60;;;1.10;;
74543;SDS011;63016;55.030;38.710;2023-07-31T07:05:04;2.15;;;0.90;;
74543;SDS011;63016;55.030;38.710;2023-07-31T07:07:29;4.00;;;1.10;;
74543;SDS011;63016;55.030;38.710;2023-07-31T07:09:55;4.22;;;0.90;;
74543;SDS011;63016;55.030;38.710;2023-07-31T07:12:20;3.53;;;0.90;;
74543;SDS011;63016;55.030;38.710;2023-07-31T07:14:46;1.42;;;0.80;;
74543;SDS011;63016;55.030;38.710;2023-07-31T07:17:13;1.38;;;0.82;;
74543;SDS011;63016;55.030;38.710;2023-07-31T07:19:41;0.73;;;0.70;;
74543;SDS011;63016;55.030;38.710;2023-07-31T07:22:07;2.33;;;1.08;;
74543;SDS011;63016;55.030;38.710;2023-07-31T07:24:33;0.80;;;0.80;;
74543;SDS011;63016;55.030;38.710;2023-07-31T07:26:58;1.42;;;0.90;;
74543;SDS011;63016;55.030;38.710;2023-07-31T07:29:24;2.47;;;0.90;;
74543;SDS011;63016;55.030;38.710;2023-07-31T07:31:49;6.15;;;1.15;;
74543;SDS011;63016;55.030;38.710;2023-07-31T07:34:15;3.15;;;0.90;;
74543;SDS011;63016;55.030;38.710;2023-07-31T07:36:40;2.35;;;0.90;;
74543;SDS011;63016;55.030;38.710;2023-07-31T07:39:06;2.78;;;0.90;;
74543;SDS011;63016;55.030;38.710;2023-07-31T07:41:31;1.75;;;0.82;;
74543;SDS011;63016;55.030;38.710;2023-07-31T07:43:56;1.35;;;1.00;;
74543;SDS011;63016;55.030;38.710;2023-07-31T07:46:22;2.45;;;0.80;;
74543;SDS011;63016;55.030;38.710;2023-07-31T07:48:48;1.20;;;0.80;;
74543;SDS011;63016;55.030;38.710;2023-07-31T07:51:13;1.45;;;0.88;;
74543;SDS011;63016;55.030;38.710;2023-07-31T07:53:39;0.80;;;0.77;;
74543;SDS011;63016;55.030;38.710;2023-07-31T07:56:04;1.00;;;0.70;;
74543;SDS011;63016;55.030;38.710;2023-07-31T07:58:30;3.42;;;0.88;;
74543;SDS011;63016;55.030;38.710;2023-07-31T08:00:55;3.55;;;0.73;;
74543;SDS011;63016;55.030;38.710;2023-07-31T08:03:21;1.63;;;0.90;;
74543;SDS011;63016;55.030;38.710;2023-07-31T08:05:46;3.45;;;0.90;;
74543;SDS011;63016;55.030;38.710;2023-07-31T08:08:15;2.53;;;0.75;;
74543;SDS011;63016;55.030;38.710;2023-07-31T08:10:41;1.75;;;0.95;;
74543;SDS011;63016;55.030;38.710;2023-07-31T08:13:07;2.80;;;0.80;;
74543;SDS011;63016;55.030;38.710;2023-07-31T08:15:33;3.53;;;0.80;;
74543;SDS011;63016;55.030;38.710;2023-07-31T08:17:58;4.05;;;0.80;;
74543;SDS011;63016;55.030;38.710;2023-07-31T08:20:24;3.53;;;0.60;;
74543;SDS011;63016;55.030;38.710;2023-07-31T08:22:51;1.00;;;0.90;;
74543;SDS011;63016;55.030;38.710;2023-07-31T08:25:18;2.35;;;0.70;;
74543;SDS011;63016;55.030;38.710;2023-07-31T08:27:43;0.98;;;0.80;;
74543;SDS011;63016;55.030;38.710;2023-07-31T08:30:09;1.90;;;0.80;;
74543;SDS011;63016;55.030;38.710;2023-07-31T08:32:36;1.00;;;0.60;;
74543;SDS011;63016;55.030;38.710;2023-07-31T08:35:02;7.10;;;0.82;;
74543;SDS011;63016;55.030;38.710;2023-07-31T08:37:28;0.80;;;0.73;;
74543;SDS011;63016;55.030;38.710;2023-07-31T08:39:53;2.45;;;0.68;;
74543;SDS011;63016;55.030;38.710;2023-07-31T08:42:19;0.75;;;0.65;;
74543;SDS011;63016;55.030;38.710;2023-07-31T08:44:45;1.92;;;0.82;;
74543;SDS011;63016;55.030;38.710;2023-07-31T08:47:13;2.55;;;0.80;;
74543;SDS011;63016;55.030;38.710;2023-07-31T08:49:39;1.63;;;0.70;;
74543;SDS011;63016;55.030;38.710;2023-07-31T08:52:07;1.23;;;0.73;;
74543;SDS011;63016;55.030;38.710;2023-07-31T08:54:33;2.17;;;0.90;;
74543;SDS011;63016;55.030;38.710;2023-07-31T08:56:58;0.70;;;0.70;;
74543;SDS011;63016;55.030;38.710;2023-07-31T08:59:25;1.85;;;0.80;;
74543;SDS011;63016;55.030;38.710;2023-07-31T09:01:54;1.27;;;0.82;;
74543;SDS011;63016;55.030;38.710;2023-07-31T09:04:22;1.40;;;0.90;;
74543;SDS011;63016;55.030;38.710;2023-07-31T09:06:49;1.13;;;0.73;;
74543;SDS011;63016;55.030;38.710;2023-07-31T09:09:19;1.92;;;0.70;;
74543;SDS011;63016;55.030;38.710;2023-07-31T09:11:45;3.45;;;0.80;;
74543;SDS011;63016;55.030;38.710;2023-07-31T09:14:11;0.88;;;0.60;;
74543;SDS011;63016;55.030;38.710;2023-07-31T09:16:51;1.80;;;1.00;;
74543;SDS011;63016;55.030;38.710;2023-07-31T09:19:35;4.40;;;0.90;;
74543;SDS011;63016;55.030;38.710;2023-07-31T09:22:05;1.38;;;0.88;;
74543;SDS011;63016;55.030;38.710;2023-07-31T09:24:32;2.97;;;0.90;;
74543;SDS011;63016;55.030;38.710;2023-07-31T09:26:59;2.25;;;0.80;;
74543;SDS011;63016;55.030;38.710;2023-07-31T09:29:26;1.58;;;0.93;;
74543;SDS011;63016;55.030;38.710;2023-07-31T09:31:54;3.03;;;1.30;;
74543;SDS011;63016;55.030;38.710;2023-07-31T09:34:20;1.35;;;1.02;;
74543;SDS011;63016;55.030;38.710;2023-07-31T09:36:53;1.10;;;0.70;;
74543;SDS011;63016;55.030;38.710;2023-07-31T09:39:18;0.93;;;0.70;;
74543;SDS011;63016;55.030;38.710;2023-07-31T09:41:48;0.75;;;0.75;;
74543;SDS011;63016;55.030;38.710;2023-07-31T09:46:45;4.25;;;0.85;;
74543;SDS011;63016;55.030;38.710;2023-07-31T09:49:12;3.53;;;0.90;;
74543;SDS011;63016;55.030;38.710;2023-07-31T09:51:39;0.75;;;0.75;;
74543;SDS011;63016;55.030;38.710;2023-07-31T09:54:13;6.32;;;1.05;;
74543;SDS011;63016;55.030;38.710;2023-07-31T09:56:42;1.65;;;0.65;;
74543;SDS011;63016;55.030;38.710;2023-07-31T09:59:14;0.70;;;0.68;;
74543;SDS011;63016;55.030;38.710;2023-07-31T10:01:41;1.48;;;0.80;;
74543;SDS011;63016;55.030;38.710;2023-07-31T10:04:08;1.02;;;0.70;;
74543;SDS011;63016;55.030;38.710;2023-07-31T10:06:37;2.72;;;0.60;;
74543;SDS011;63016;55.030;38.710;2023-07-31T10:09:07;1.38;;;0.60;;
74543;SDS011;63016;55.030;38.710;2023-07-31T10:11:36;1.08;;;0.63;;
74543;SDS011;63016;55.030;38.710;2023-07-31T10:14:06;0.88;;;0.70;;
74543;SDS011;63016;55.030;38.710;2023-07-31T10:16:33;0.68;;;0.68;;
74543;SDS011;63016;55.030;38.710;2023-07-31T10:19:00;1.35;;;0.80;;
74543;SDS011;63016;55.030;38.710;2023-07-31T10:21:26;0.82;;;0.77;;
74543;SDS011;63016;55.030;38.710;2023-07-31T10:23:53;0.75;;;0.70;;
74543;SDS011;63016;55.030;38.710;2023-07-31T10:26:19;1.67;;;0.70;;
74543;SDS011;63016;55.030;38.710;2023-07-31T10:28:48;4.25;;;0.98;;
74543;SDS011;63016;55.030;38.710;2023-07-31T10:31:17;0.88;;;0.60;;
74543;SDS011;63016;55.030;38.710;2023-07-31T10:33:44;1.73;;;0.90;;
74543;SDS011;63016;55.030;38.710;2023-07-31T10:36:15;1.52;;;0.65;;
74543;SDS011;63016;55.030;38.710;2023-07-31T10:38:43;1.10;;;0.80;;
74543;SDS011;63016;55.030;38.710;2023-07-31T10:41:08;1.30;;;0.60;;
74543;SDS011;63016;55.030;38.710;2023-07-31T10:43:36;0.98;;;0.70;;
74543;SDS011;63016;55.030;38.710;2023-07-31T10:46:12;2.08;;;0.70;;
74543;SDS011;63016;55.030;38.710;2023-07-31T10:48:39;0.80;;;0.80;;
74543;SDS011;63016;55.030;38.710;2023-07-31T10:51:12;1.58;;;0.70;;
74543;SDS011;63016;55.030;38.710;2023-07-31T10:53:38;1.95;;;0.73;;
74543;SDS011;63016;55.030;38.710;2023-07-31T10:56:06;1.08;;;0.88;;
74543;SDS011;63016;55.030;38.710;2023-07-31T10:58:33;2.38;;;0.90;;
74543;SDS011;63016;55.030;38.710;2023-07-31T11:01:00;1.27;;;0.60;;
74543;SDS011;63016;55.030;38.710;2023-07-31T11:03:47;1.50;;;0.73;;
74543;SDS011;63016;55.030;38.710;2023-07-31T11:06:17;1.40;;;0.73;;
74543;SDS011;63016;55.030;38.710;2023-07-31T11:08:47;0.90;;;0.70;;
74543;SDS011;63016;55.030;38.710;2023-07-31T11:11:15;2.35;;;1.00;;
74543;SDS011;63016;55.030;38.710;2023-07-31T11:13:48;1.98;;;0.70;;
74543;SDS011;63016;55.030;38.710;2023-07-31T11:16:17;5.80;;;0.90;;
74543;SDS011;63016;55.030;38.710;2023-07-31T11:18:45;0.60;;;0.60;;
74543;SDS011;63016;55.030;38.710;2023-07-31T11:21:16;3.33;;;0.88;;
74543;SDS011;63016;55.030;38.710;2023-07-31T11:23:46;1.00;;;0.90;;
74543;SDS011;63016;55.030;38.710;2023-07-31T11:26:16;1.00;;;0.90;;
74543;SDS011;63016;55.030;38.710;2023-07-31T11:28:43;1.30;;;0.98;;
74543;SDS011;63016;55.030;38.710;2023-07-31T11:31:11;1.83;;;0.95;;
74543;SDS011;63016;55.030;38.710;2023-07-31T11:33:36;3.22;;;0.93;;
74543;SDS011;63016;55.030;38.710;2023-07-31T11:36:02;1.67;;;0.70;;
74543;SDS011;63016;55.030;38.710;2023-07-31T11:38:29;1.60;;;0.85;;
74543;SDS011;63016;55.030;38.710;2023-07-31T11:40:58;1.45;;;0.77;;
74543;SDS011;63016;55.030;38.710;2023-07-31T11:43:27;1.27;;;0.85;;
74543;SDS011;63016;55.030;38.710;2023-07-31T11:45:57;1.60;;;1.00;;
74543;SDS011;63016;55.030;38.710;2023-07-31T11:50:57;2.67;;;0.95;;
74543;SDS011;63016;55.030;38.710;2023-07-31T11:53:28;2.83;;;0.90;;
74543;SDS011;63016;55.030;38.710;2023-07-31T11:56:18;2.78;;;0.93;;
74543;SDS011;63016;55.030;38.710;2023-07-31T11:58:49;4.65;;;1.15;;
74543;SDS011;63016;55.030;38.710;2023-07-31T12:01:17;0.85;;;0.82;;
74543;SDS011;63016;55.030;38.710;2023-07-31T12:03:45;2.25;;;0.77;;
74543;SDS011;63016;55.030;38.710;2023-07-31T12:06:11;1.05;;;0.70;;
74543;SDS011;63016;55.030;38.710;2023-07-31T12:08:37;7.78;;;0.88;;
74543;SDS011;63016;55.030;38.710;2023-07-31T12:11:03;1.95;;;1.02;;
74543;SDS011;63016;55.030;38.710;2023-07-31T12:13:30;0.98;;;0.80;;
74543;SDS011;63016;55.030;38.710;2023-07-31T12:15:58;1.67;;;0.90;;
74543;SDS011;63016;55.030;38.710;2023-07-31T12:18:25;4.82;;;0.93;;
74543;SDS011;63016;55.030;38.710;2023-07-31T12:20:59;2.03;;;0.88;;
74543;SDS011;63016;55.030;38.710;2023-07-31T12:23:27;3.53;;;0.75;;
74543;SDS011;63016;55.030;38.710;2023-07-31T12:26:03;1.05;;;0.85;;
74543;SDS011;63016;55.030;38.710;2023-07-31T12:28:48;1.08;;;0.70;;
74543;SDS011;63016;55.030;38.710;2023-07-31T12:31:16;1.33;;;0.80;;
74543;SDS011;63016;55.030;38.710;2023-07-31T12:33:43;1.35;;;0.82;;
74543;SDS011;63016;55.030;38.710;2023-07-31T12:36:10;3.03;;;0.80;;
74543;SDS011;63016;55.030;38.710;2023-07-31T12:38:37;1.10;;;0.80;;
74543;SDS011;63016;55.030;38.710;2023-07-31T12:41:03;1.42;;;0.80;;
74543;SDS011;63016;55.030;38.710;2023-07-31T12:43:29;1.95;;;0.90;;
74543;SDS011;63016;55.030;38.710;2023-07-31T12:45:54;2.20;;;0.90;;
74543;SDS011;63016;55.030;38.710;2023-07-31T12:48:21;0.80;;;0.68;;
74543;SDS011;63016;55.030;38.710;2023-07-31T12:50:47;2.38;;;0.90;;
74543;SDS011;63016;55.030;38.710;2023-07-31T12:53:12;0.80;;;0.80;;
74543;SDS011;63016;55.030;38.710;2023-07-31T12:55:38;0.95;;;0.90;;
74543;SDS011;63016;55.030;38.710;2023-07-31T12:58:03;1.52;;;0.90;;
74543;SDS011;63016;55.030;38.710;2023-07-31T13:00:29;2.17;;;1.00;;
74543;SDS011;63016;55.030;38.710;2023-07-31T13:02:55;3.25;;;1.10;;
74543;SDS011;63016;55.030;38.710;2023-07-31T13:05:20;1.20;;;0.93;;
74543;SDS011;63016;55.030;38.710;2023-07-31T13:07:46;1.17;;;0.80;;
74543;SDS011;63016;55.030;38.710;2023-07-31T13:10:12;1.20;;;0.90;;
74543;SDS011;63016;55.030;38.710;2023-07-31T13:12:38;3.03;;;0.90;;
74543;SDS011;63016;55.030;38.710;2023-07-31T13:15:04;1.42;;;0.90;;
74543;SDS011;63016;55.030;38.710;2023-07-31T13:17:30;1.50;;;0.90;;
74543;SDS011;63016;55.030;38.710;2023-07-31T13:19:56;2.38;;;0.93;;
74543;SDS011;63016;55.030;38.710;2023-07-31T13:22:22;1.75;;;0.90;;
74543;SDS011;63016;55.030;38.710;2023-07-31T13:24:47;3.00;;;0.90;;
74543;SDS011;63016;55.030;38.710;2023-07-31T13:27:13;2.45;;;1.00;;
74543;SDS011;63016;55.030;38.710;2023-07-31T13:29:43;2.20;;;0.82;;
74543;SDS011;63016;55.030;38.710;2023-07-31T13:32:10;1.20;;;0.90;;
74543;SDS011;63016;55.030;38.710;2023-07-31T13:34:35;1.33;;;0.90;;
74543;SDS011;63016;55.030;38.710;2023-07-31T13:37:01;1.17;;;0.90;;
74543;SDS011;63016;55.030;38.710;2023-07-31T13:39:26;2.38;;;0.90;;
74543;SDS011;63016;55.030;38.710;2023-07-31T13:41:52;1.33;;;0.80;;
74543;SDS011;63016;55.030;38.710;2023-07-31T13:44:17;1.35;;;0.90;;
74543;SDS011;63016;55.030;38.710;2023-07-31T13:46:43;1.00;;;0.90;;
74543;SDS011;63016;55.030;38.710;2023-07-31T13:49:08;4.43;;;0.90;;
74543;SDS011;63016;55.030;38.710;2023-07-31T13:51:34;2.83;;;0.80;;
74543;SDS011;63016;55.030;38.710;2023-07-31T13:53:59;0.70;;;0.70;;
74543;SDS011;63016;55.030;38.710;2023-07-31T13:56:25;2.03;;;0.90;;
74543;SDS011;63016;55.030;38.710;2023-07-31T13:58:50;1.00;;;0.90;;
74543;SDS011;63016;55.030;38.710;2023-07-31T14:01:16;2.42;;;0.90;;
74543;SDS011;63016;55.030;38.710;2023-07-31T14:03:41;1.35;;;0.80;;
74543;SDS011;63016;55.030;38.710;2023-07-31T14:06:06;1.73;;;0.90;;
74543;SDS011;63016;55.030;38.710;2023-07-31T14:08:32;1.02;;;0.80;;
74543;SDS011;63016;55.030;38.710;2023-07-31T14:10:57;1.55;;;0.90;;
74543;SDS011;63016;55.030;38.710;2023-07-31T14:13:23;1.40;;;0.88;;
74543;SDS011;63016;55.030;38.710;2023-07-31T14:15:48;1.00;;;0.90;;
74543;SDS011;63016;55.030;38.710;2023-07-31T14:18:14;1.05;;;1.00;;
74543;SDS011;63016;55.030;38.710;2023-07-31T14:20:39;1.13;;;0.77;;
74543;SDS011;63016;55.030;38.710;2023-07-31T14:23:05;0.90;;;0.80;;
74543;SDS011;63016;55.030;38.710;2023-07-31T14:25:30;5.90;;;1.08;;
74543;SDS011;63016;55.030;38.710;2023-07-31T14:27:56;4.10;;;1.13;;
74543;SDS011;63016;55.030;38.710;2023-07-31T14:30:21;2.67;;;1.00;;
74543;SDS011;63016;55.030;38.710;2023-07-31T14:32:48;1.60;;;1.10;;
74543;SDS011;63016;55.030;38.710;2023-07-31T14:35:13;1.17;;;0.88;;
74543;SDS011;63016;55.030;38.710;2023-07-31T14:37:40;3.25;;;0.90;;
74543;SDS011;63016;55.030;38.710;2023-07-31T14:40:09;1.38;;;0.90;;
74543;SDS011;63016;55.030;38.710;2023-07-31T14:42:36;1.48;;;1.00;;